sensor_id;sensor_type;location;lat;lon;timestamp;temperature;humidity
30280;DHT22;17097;50.916;5.344;2022-07-29T00:02:08;20.70;99.90
30280;DHT22;17097;50.916;5.344;2022-07-29T00:04:35;20.60;99.90
30280;DHT22;17097;50.916;5.344;2022-07-29T00:07:01;20.60;99.90
30280;DHT22;17097;50.916;5.344;2022-07-29T00:09:27;20.50;99.90
30280;DHT22;17097;50.916;5.344;2022-07-29T00:11:53;20.70;99.90
30280;DHT22;17097;50.916;5.344;2022-07-29T00:14:20;20.70;99.90
30280;DHT22;17097;50.916;5.344;2022-07-29T00:16:45;20.80;99.90
30280;DHT22;17097;50.916;5.344;2022-07-29T00:19:11;20.70;99.90
30280;DHT22;17097;50.916;5.344;2022-07-29T00:21:37;20.60;99.90
30280;DHT22;17097;50.916;5.344;2022-07-29T00:24:03;20.50;99.90
30280;DHT22;17097;50.916;5.344;2022-07-29T00:26:28;20.50;99.90
30280;DHT22;17097;50.916;5.344;2022-07-29T00:29:01;20.40;99.90
30280;DHT22;17097;50.916;5.344;2022-07-29T00:31:27;20.40;99.90
30280;DHT22;17097;50.916;5.344;2022-07-29T00:33:53;20.30;99.90
30280;DHT22;17097;50.916;5.344;2022-07-29T00:36:19;20.40;99.90
30280;DHT22;17097;50.916;5.344;2022-07-29T00:38:47;20.40;99.90
30280;DHT22;17097;50.916;5.344;2022-07-29T00:41:12;20.40;99.90
30280;DHT22;17097;50.916;5.344;2022-07-29T00:43:38;20.40;99.90
30280;DHT22;17097;50.916;5.344;2022-07-29T00:46:03;20.50;99.90
30280;DHT22;17097;50.916;5.344;2022-07-29T00:48:29;20.40;99.90
30280;DHT22;17097;50.916;5.344;2022-07-29T00:50:57;20.40;99.90
30280;DHT22;17097;50.916;5.344;2022-07-29T00:53:23;20.30;99.90
30280;DHT22;17097;50.916;5.344;2022-07-29T00:55:49;20.10;99.90
30280;DHT22;17097;50.916;5.344;2022-07-29T00:58:15;20.00;99.90
30280;DHT22;17097;50.916;5.344;2022-07-29T01:00:41;20.00;99.90
30280;DHT22;17097;50.916;5.344;2022-07-29T01:03:07;20.10;99.90
30280;DHT22;17097;50.916;5.344;2022-07-29T01:05:34;20.00;99.90
30280;DHT22;17097;50.916;5.344;2022-07-29T01:08:00;19.90;99.90
30280;DHT22;17097;50.916;5.344;2022-07-29T01:10:28;19.90;99.90
30280;DHT22;17097;50.916;5.344;2022-07-29T01:12:57;19.90;99.90
30280;DHT22;17097;50.916;5.344;2022-07-29T01:15:23;19.90;99.90
30280;DHT22;17097;50.916;5.344;2022-07-29T01:23:48;20.00;99.90
30280;DHT22;17097;50.916;5.344;2022-07-29T01:29:26;19.80;99.90
30280;DHT22;17097;50.916;5.344;2022-07-29T01:34:58;19.70;99.90
30280;DHT22;17097;50.916;5.344;2022-07-29T01:39:57;20.00;99.90
30280;DHT22;17097;50.916;5.344;2022-07-29T01:48:11;19.70;99.90
30280;DHT22;17097;50.916;5.344;2022-07-29T01:50:56;19.50;99.90
30280;DHT22;17097;50.916;5.344;2022-07-29T01:54:14;19.30;99.90
30280;DHT22;17097;50.916;5.344;2022-07-29T01:56:43;19.20;99.90
30280;DHT22;17097;50.916;5.344;2022-07-29T01:59:10;19.00;99.90
30280;DHT22;17097;50.916;5.344;2022-07-29T02:01:38;18.90;99.90
30280;DHT22;17097;50.916;5.344;2022-07-29T02:04:07;19.00;99.90
30280;DHT22;17097;50.916;5.344;2022-07-29T02:06:37;19.20;99.90
30280;DHT22;17097;50.916;5.344;2022-07-29T02:09:04;19.20;99.90
30280;DHT22;17097;50.916;5.344;2022-07-29T02:11:32;19.20;99.90
30280;DHT22;17097;50.916;5.344;2022-07-29T02:14:00;19.20;99.90
30280;DHT22;17097;50.916;5.344;2022-07-29T02:16:27;19.10;99.90
30280;DHT22;17097;50.916;5.344;2022-07-29T02:18:54;19.10;99.90
30280;DHT22;17097;50.916;5.344;2022-07-29T02:21:24;19.00;99.90
30280;DHT22;17097;50.916;5.344;2022-07-29T02:23:52;19.00;99.90
30280;DHT22;17097;50.916;5.344;2022-07-29T02:26:20;19.00;99.90
30280;DHT22;17097;50.916;5.344;2022-07-29T02:28:48;19.00;99.90
30280;DHT22;17097;50.916;5.344;2022-07-29T02:31:14;18.90;99.90
30280;DHT22;17097;50.916;5.344;2022-07-29T02:33:42;18.80;99.90
30280;DHT22;17097;50.916;5.344;2022-07-29T02:36:08;18.70;99.90
30280;DHT22;17097;50.916;5.344;2022-07-29T02:38:35;18.70;99.90
30280;DHT22;17097;50.916;5.344;2022-07-29T02:41:37;18.80;99.90
30280;DHT22;17097;50.916;5.344;2022-07-29T02:44:11;18.80;99.90
30280;DHT22;17097;50.916;5.344;2022-07-29T02:46:43;18.80;99.90
30280;DHT22;17097;50.916;5.344;2022-07-29T02:51:53;18.70;99.90
30280;DHT22;17097;50.916;5.344;2022-07-29T02:54:29;18.80;99.90
30280;DHT22;17097;50.916;5.344;2022-07-29T02:56:58;18.70;99.90
30280;DHT22;17097;50.916;5.344;2022-07-29T02:59:27;18.60;99.90
30280;DHT22;17097;50.916;5.344;2022-07-29T03:01:57;18.60;99.90
30280;DHT22;17097;50.916;5.344;2022-07-29T03:04:26;18.60;99.90
30280;DHT22;17097;50.916;5.344;2022-07-29T03:06:53;18.50;99.90
30280;DHT22;17097;50.916;5.344;2022-07-29T03:09:21;18.60;99.90
30280;DHT22;17097;50.916;5.344;2022-07-29T03:11:49;18.60;99.90
30280;DHT22;17097;50.916;5.344;2022-07-29T03:14:19;18.70;99.90
30280;DHT22;17097;50.916;5.344;2022-07-29T03:16:45;18.70;99.90
30280;DHT22;17097;50.916;5.344;2022-07-29T03:19:12;18.70;99.90
30280;DHT22;17097;50.916;5.344;2022-07-29T03:21:38;18.70;99.90
30280;DHT22;17097;50.916;5.344;2022-07-29T03:24:04;18.70;99.90
30280;DHT22;17097;50.916;5.344;2022-07-29T03:26:30;18.60;99.90
30280;DHT22;17097;50.916;5.344;2022-07-29T03:28:56;18.60;99.90
30280;DHT22;17097;50.916;5.344;2022-07-29T03:31:21;18.70;99.90
30280;DHT22;17097;50.916;5.344;2022-07-29T03:33:47;18.70;99.90
30280;DHT22;17097;50.916;5.344;2022-07-29T03:36:12;18.70;99.90
30280;DHT22;17097;50.916;5.344;2022-07-29T03:38:40;18.70;99.90
30280;DHT22;17097;50.916;5.344;2022-07-29T03:41:10;18.70;99.90
30280;DHT22;17097;50.916;5.344;2022-07-29T03:43:38;19.00;99.90
30280;DHT22;17097;50.916;5.344;2022-07-29T03:46:10;19.00;99.90
30280;DHT22;17097;50.916;5.344;2022-07-29T03:48:39;18.90;99.90
30280;DHT22;17097;50.916;5.344;2022-07-29T03:51:07;18.80;99.90
30280;DHT22;17097;50.916;5.344;2022-07-29T03:53:33;18.80;99.90
30280;DHT22;17097;50.916;5.344;2022-07-29T03:56:02;18.70;99.90
30280;DHT22;17097;50.916;5.344;2022-07-29T03:58:30;18.70;99.90
30280;DHT22;17097;50.916;5.344;2022-07-29T04:00:56;18.80;99.90
30280;DHT22;17097;50.916;5.344;2022-07-29T04:03:22;19.00;99.90
30280;DHT22;17097;50.916;5.344;2022-07-29T04:06:03;19.00;99.90
30280;DHT22;17097;50.916;5.344;2022-07-29T04:08:30;19.00;99.90
30280;DHT22;17097;50.916;5.344;2022-07-29T04:10:56;18.80;99.90
30280;DHT22;17097;50.916;5.344;2022-07-29T04:13:21;18.90;99.90
30280;DHT22;17097;50.916;5.344;2022-07-29T04:15:47;19.10;99.90
30280;DHT22;17097;50.916;5.344;2022-07-29T04:18:13;19.00;99.90
30280;DHT22;17097;50.916;5.344;2022-07-29T04:20:38;19.00;99.90
30280;DHT22;17097;50.916;5.344;2022-07-29T04:23:05;19.00;99.90
30280;DHT22;17097;50.916;5.344;2022-07-29T04:25:30;18.90;99.90
30280;DHT22;17097;50.916;5.344;2022-07-29T04:27:56;18.90;99.90
30280;DHT22;17097;50.916;5.344;2022-07-29T04:30:29;18.90;99.90
30280;DHT22;17097;50.916;5.344;2022-07-29T04:32:55;18.80;99.90
30280;DHT22;17097;50.916;5.344;2022-07-29T04:35:20;18.80;99.90
30280;DHT22;17097;50.916;5.344;2022-07-29T04:37:46;18.80;99.90
30280;DHT22;17097;50.916;5.344;2022-07-29T04:40:12;18.80;99.90
30280;DHT22;17097;50.916;5.344;2022-07-29T04:42:38;18.70;99.90
30280;DHT22;17097;50.916;5.344;2022-07-29T04:45:04;18.70;99.90
30280;DHT22;17097;50.916;5.344;2022-07-29T04:47:30;18.60;99.90
30280;DHT22;17097;50.916;5.344;2022-07-29T04:49:56;18.60;99.90
30280;DHT22;17097;50.916;5.344;2022-07-29T04:52:22;18.60;99.90
30280;DHT22;17097;50.916;5.344;2022-07-29T04:54:48;18.50;99.90
30280;DHT22;17097;50.916;5.344;2022-07-29T04:57:14;18.40;99.90
30280;DHT22;17097;50.916;5.344;2022-07-29T04:59:39;18.40;99.90
30280;DHT22;17097;50.916;5.344;2022-07-29T05:02:05;18.60;99.90
30280;DHT22;17097;50.916;5.344;2022-07-29T05:04:31;18.70;99.90
30280;DHT22;17097;50.916;5.344;2022-07-29T05:06:56;18.80;99.90
30280;DHT22;17097;50.916;5.344;2022-07-29T05:09:22;18.70;99.90
30280;DHT22;17097;50.916;5.344;2022-07-29T05:11:48;18.80;99.90
30280;DHT22;17097;50.916;5.344;2022-07-29T05:14:13;18.70;99.90
30280;DHT22;17097;50.916;5.344;2022-07-29T05:16:39;18.70;99.90
30280;DHT22;17097;50.916;5.344;2022-07-29T05:19:05;18.70;99.90
30280;DHT22;17097;50.916;5.344;2022-07-29T05:21:31;18.60;99.90
30280;DHT22;17097;50.916;5.344;2022-07-29T05:23:57;18.50;99.90
30280;DHT22;17097;50.916;5.344;2022-07-29T05:26:22;18.40;99.90
30280;DHT22;17097;50.916;5.344;2022-07-29T05:28:48;18.40;99.90
30280;DHT22;17097;50.916;5.344;2022-07-29T05:31:14;18.40;99.90
30280;DHT22;17097;50.916;5.344;2022-07-29T05:33:40;18.40;99.90
30280;DHT22;17097;50.916;5.344;2022-07-29T05:36:06;18.50;99.90
30280;DHT22;17097;50.916;5.344;2022-07-29T05:38:35;18.50;99.90
30280;DHT22;17097;50.916;5.344;2022-07-29T05:41:01;18.40;99.90
30280;DHT22;17097;50.916;5.344;2022-07-29T05:43:28;18.50;99.90
30280;DHT22;17097;50.916;5.344;2022-07-29T05:45:53;18.50;99.90
30280;DHT22;17097;50.916;5.344;2022-07-29T05:48:19;18.60;99.90
30280;DHT22;17097;50.916;5.344;2022-07-29T05:50:45;18.80;99.90
30280;DHT22;17097;50.916;5.344;2022-07-29T05:53:10;18.80;99.90
30280;DHT22;17097;50.916;5.344;2022-07-29T05:55:36;18.70;99.90
30280;DHT22;17097;50.916;5.344;2022-07-29T05:58:02;18.80;99.90
30280;DHT22;17097;50.916;5.344;2022-07-29T06:00:28;18.90;99.90
30280;DHT22;17097;50.916;5.344;2022-07-29T06:02:53;19.00;99.90
30280;DHT22;17097;50.916;5.344;2022-07-29T06:05:19;19.10;99.90
30280;DHT22;17097;50.916;5.344;2022-07-29T06:07:45;19.20;99.90
30280;DHT22;17097;50.916;5.344;2022-07-29T06:10:10;19.10;99.90
30280;DHT22;17097;50.916;5.344;2022-07-29T06:12:36;19.10;99.90
30280;DHT22;17097;50.916;5.344;2022-07-29T06:15:02;19.20;99.90
30280;DHT22;17097;50.916;5.344;2022-07-29T06:17:28;19.40;99.90
30280;DHT22;17097;50.916;5.344;2022-07-29T06:19:54;19.30;99.90
30280;DHT22;17097;50.916;5.344;2022-07-29T06:22:19;19.30;99.90
30280;DHT22;17097;50.916;5.344;2022-07-29T06:24:45;19.40;99.90
30280;DHT22;17097;50.916;5.344;2022-07-29T06:27:11;19.70;99.90
30280;DHT22;17097;50.916;5.344;2022-07-29T06:29:37;19.90;99.90
30280;DHT22;17097;50.916;5.344;2022-07-29T06:32:02;19.70;99.90
30280;DHT22;17097;50.916;5.344;2022-07-29T06:34:28;19.50;99.90
30280;DHT22;17097;50.916;5.344;2022-07-29T06:36:54;19.50;99.90
30280;DHT22;17097;50.916;5.344;2022-07-29T06:39:20;19.60;99.90
30280;DHT22;17097;50.916;5.344;2022-07-29T06:41:49;19.90;99.90
30280;DHT22;17097;50.916;5.344;2022-07-29T06:44:16;19.70;99.90
30280;DHT22;17097;50.916;5.344;2022-07-29T06:46:42;19.80;99.90
30280;DHT22;17097;50.916;5.344;2022-07-29T06:49:09;20.00;99.90
30280;DHT22;17097;50.916;5.344;2022-07-29T06:51:35;19.90;99.90
30280;DHT22;17097;50.916;5.344;2022-07-29T06:54:01;19.90;99.90
30280;DHT22;17097;50.916;5.344;2022-07-29T06:56:31;19.90;99.90
30280;DHT22;17097;50.916;5.344;2022-07-29T06:58:57;19.90;99.90
30280;DHT22;17097;50.916;5.344;2022-07-29T07:01:23;20.00;99.90
30280;DHT22;17097;50.916;5.344;2022-07-29T07:03:48;19.90;99.90
30280;DHT22;17097;50.916;5.344;2022-07-29T07:06:14;19.90;99.90
30280;DHT22;17097;50.916;5.344;2022-07-29T07:08:40;19.90;99.90
30280;DHT22;17097;50.916;5.344;2022-07-29T07:11:05;20.10;99.90
30280;DHT22;17097;50.916;5.344;2022-07-29T07:13:32;20.20;99.90
30280;DHT22;17097;50.916;5.344;2022-07-29T07:16:00;20.20;99.90
30280;DHT22;17097;50.916;5.344;2022-07-29T07:18:26;20.40;99.90
30280;DHT22;17097;50.916;5.344;2022-07-29T07:20:53;20.30;99.90
30280;DHT22;17097;50.916;5.344;2022-07-29T07:23:18;20.20;99.90
30280;DHT22;17097;50.916;5.344;2022-07-29T07:25:44;20.10;99.90
30280;DHT22;17097;50.916;5.344;2022-07-29T07:28:10;19.90;99.90
30280;DHT22;17097;50.916;5.344;2022-07-29T07:30:36;19.90;99.90
30280;DHT22;17097;50.916;5.344;2022-07-29T07:33:02;20.00;99.90
30280;DHT22;17097;50.916;5.344;2022-07-29T07:35:27;20.30;99.90
30280;DHT22;17097;50.916;5.344;2022-07-29T07:37:55;20.40;99.90
30280;DHT22;17097;50.916;5.344;2022-07-29T07:40:20;20.50;99.90
30280;DHT22;17097;50.916;5.344;2022-07-29T07:42:46;20.50;99.90
30280;DHT22;17097;50.916;5.344;2022-07-29T07:45:12;20.80;99.90
30280;DHT22;17097;50.916;5.344;2022-07-29T07:47:38;20.80;99.90
30280;DHT22;17097;50.916;5.344;2022-07-29T07:50:06;20.70;99.90
30280;DHT22;17097;50.916;5.344;2022-07-29T07:52:32;20.80;99.90
30280;DHT22;17097;50.916;5.344;2022-07-29T07:54:57;21.10;99.90
30280;DHT22;17097;50.916;5.344;2022-07-29T07:57:23;21.30;99.90
30280;DHT22;17097;50.916;5.344;2022-07-29T07:59:49;21.40;99.90
30280;DHT22;17097;50.916;5.344;2022-07-29T08:02:14;21.40;99.90
30280;DHT22;17097;50.916;5.344;2022-07-29T08:04:40;21.60;99.90
30280;DHT22;17097;50.916;5.344;2022-07-29T08:07:06;21.70;99.90
30280;DHT22;17097;50.916;5.344;2022-07-29T08:09:33;21.60;99.90
30280;DHT22;17097;50.916;5.344;2022-07-29T08:12:00;21.80;99.90
30280;DHT22;17097;50.916;5.344;2022-07-29T08:14:29;21.70;99.90
30280;DHT22;17097;50.916;5.344;2022-07-29T08:16:55;21.90;99.90
30280;DHT22;17097;50.916;5.344;2022-07-29T08:19:20;21.90;99.90
30280;DHT22;17097;50.916;5.344;2022-07-29T08:21:46;22.10;99.90
30280;DHT22;17097;50.916;5.344;2022-07-29T08:24:12;22.10;99.90
30280;DHT22;17097;50.916;5.344;2022-07-29T08:26:56;22.10;99.90
30280;DHT22;17097;50.916;5.344;2022-07-29T08:29:22;22.10;99.90
30280;DHT22;17097;50.916;5.344;2022-07-29T08:31:47;22.30;99.90
30280;DHT22;17097;50.916;5.344;2022-07-29T08:34:13;22.60;99.90
30280;DHT22;17097;50.916;5.344;2022-07-29T08:36:38;22.70;99.90
30280;DHT22;17097;50.916;5.344;2022-07-29T08:39:04;22.70;99.90
30280;DHT22;17097;50.916;5.344;2022-07-29T08:41:30;22.90;99.90
30280;DHT22;17097;50.916;5.344;2022-07-29T08:43:56;22.90;99.90
30280;DHT22;17097;50.916;5.344;2022-07-29T08:46:23;23.10;99.90
30280;DHT22;17097;50.916;5.344;2022-07-29T08:48:49;23.30;99.90
30280;DHT22;17097;50.916;5.344;2022-07-29T08:51:17;23.40;99.90
30280;DHT22;17097;50.916;5.344;2022-07-29T08:53:44;23.50;99.90
30280;DHT22;17097;50.916;5.344;2022-07-29T08:56:18;23.70;99.90
30280;DHT22;17097;50.916;5.344;2022-07-29T08:58:45;24.20;99.90
30280;DHT22;17097;50.916;5.344;2022-07-29T09:01:13;24.70;99.90
30280;DHT22;17097;50.916;5.344;2022-07-29T09:03:40;25.40;99.90
30280;DHT22;17097;50.916;5.344;2022-07-29T09:06:07;25.90;99.90
30280;DHT22;17097;50.916;5.344;2022-07-29T09:08:33;26.40;99.90
30280;DHT22;17097;50.916;5.344;2022-07-29T09:11:01;27.00;99.90
30280;DHT22;17097;50.916;5.344;2022-07-29T09:13:27;27.70;99.90
30280;DHT22;17097;50.916;5.344;2022-07-29T09:15:52;28.30;99.90
30280;DHT22;17097;50.916;5.344;2022-07-29T09:18:35;28.80;98.80
30280;DHT22;17097;50.916;5.344;2022-07-29T09:21:02;29.20;96.80
30280;DHT22;17097;50.916;5.344;2022-07-29T09:24:09;29.50;95.50
30280;DHT22;17097;50.916;5.344;2022-07-29T09:26:38;29.60;95.40
30280;DHT22;17097;50.916;5.344;2022-07-29T09:29:12;29.70;93.50
30280;DHT22;17097;50.916;5.344;2022-07-29T09:31:40;29.80;94.40
30280;DHT22;17097;50.916;5.344;2022-07-29T09:34:07;30.30;93.40
30280;DHT22;17097;50.916;5.344;2022-07-29T09:36:48;30.40;93.10
30280;DHT22;17097;50.916;5.344;2022-07-29T09:39:16;30.60;91.90
30280;DHT22;17097;50.916;5.344;2022-07-29T09:41:54;30.20;93.00
30280;DHT22;17097;50.916;5.344;2022-07-29T09:44:21;30.60;92.30
30280;DHT22;17097;50.916;5.344;2022-07-29T09:47:03;31.00;91.70
30280;DHT22;17097;50.916;5.344;2022-07-29T09:49:34;31.40;90.30
30280;DHT22;17097;50.916;5.344;2022-07-29T09:52:09;31.60;90.10
30280;DHT22;17097;50.916;5.344;2022-07-29T09:54:35;31.20;90.80
30280;DHT22;17097;50.916;5.344;2022-07-29T09:57:07;31.30;90.60
30280;DHT22;17097;50.916;5.344;2022-07-29T09:59:35;31.60;88.50
30280;DHT22;17097;50.916;5.344;2022-07-29T10:02:01;31.80;88.10
30280;DHT22;17097;50.916;5.344;2022-07-29T10:04:45;32.00;85.00
30280;DHT22;17097;50.916;5.344;2022-07-29T10:07:11;31.80;87.10
30280;DHT22;17097;50.916;5.344;2022-07-29T10:09:36;31.90;85.30
30280;DHT22;17097;50.916;5.344;2022-07-29T10:12:10;32.40;85.40
30280;DHT22;17097;50.916;5.344;2022-07-29T10:14:37;32.70;84.30
30280;DHT22;17097;50.916;5.344;2022-07-29T10:17:05;32.80;83.20
30280;DHT22;17097;50.916;5.344;2022-07-29T10:19:31;32.60;80.30
30280;DHT22;17097;50.916;5.344;2022-07-29T10:22:03;32.80;76.80
30280;DHT22;17097;50.916;5.344;2022-07-29T10:24:30;32.90;77.20
30280;DHT22;17097;50.916;5.344;2022-07-29T10:26:57;32.90;76.20
30280;DHT22;17097;50.916;5.344;2022-07-29T10:29:24;33.10;75.40
30280;DHT22;17097;50.916;5.344;2022-07-29T10:43:16;32.50;74.20
30280;DHT22;17097;50.916;5.344;2022-07-29T10:45:45;32.10;75.40
30280;DHT22;17097;50.916;5.344;2022-07-29T10:48:11;31.70;76.00
30280;DHT22;17097;50.916;5.344;2022-07-29T10:50:59;31.50;75.70
30280;DHT22;17097;50.916;5.344;2022-07-29T10:56:27;31.50;75.90
30280;DHT22;17097;50.916;5.344;2022-07-29T11:01:47;31.80;74.30
30280;DHT22;17097;50.916;5.344;2022-07-29T11:04:13;31.90;72.70
30280;DHT22;17097;50.916;5.344;2022-07-29T11:09:29;31.60;74.40
30280;DHT22;17097;50.916;5.344;2022-07-29T11:11:56;31.30;76.10
30280;DHT22;17097;50.916;5.344;2022-07-29T11:17:17;31.40;74.80
30280;DHT22;17097;50.916;5.344;2022-07-29T11:19:43;31.20;75.10
30280;DHT22;17097;50.916;5.344;2022-07-29T11:22:10;31.30;75.20
30280;DHT22;17097;50.916;5.344;2022-07-29T11:24:37;31.40;74.70
30280;DHT22;17097;50.916;5.344;2022-07-29T11:27:14;31.40;72.70
30280;DHT22;17097;50.916;5.344;2022-07-29T11:29:52;30.70;73.80
30280;DHT22;17097;50.916;5.344;2022-07-29T11:32:19;30.90;74.30
30280;DHT22;17097;50.916;5.344;2022-07-29T11:34:46;31.20;74.00
30280;DHT22;17097;50.916;5.344;2022-07-29T11:39:38;31.10;73.00
30280;DHT22;17097;50.916;5.344;2022-07-29T11:47:35;31.80;70.60
30280;DHT22;17097;50.916;5.344;2022-07-29T11:50:03;31.50;70.80
30280;DHT22;17097;50.916;5.344;2022-07-29T11:52:37;31.80;69.90
30280;DHT22;17097;50.916;5.344;2022-07-29T11:55:10;32.10;69.00
30280;DHT22;17097;50.916;5.344;2022-07-29T11:57:36;32.10;67.80
30280;DHT22;17097;50.916;5.344;2022-07-29T12:00:04;31.90;67.70
30280;DHT22;17097;50.916;5.344;2022-07-29T12:02:43;31.50;71.60
30280;DHT22;17097;50.916;5.344;2022-07-29T12:05:10;31.10;73.60
30280;DHT22;17097;50.916;5.344;2022-07-29T12:07:37;31.10;73.80
30280;DHT22;17097;50.916;5.344;2022-07-29T12:10:04;31.10;72.50
30280;DHT22;17097;50.916;5.344;2022-07-29T12:12:30;31.10;71.10
30280;DHT22;17097;50.916;5.344;2022-07-29T12:14:56;31.10;73.10
30280;DHT22;17097;50.916;5.344;2022-07-29T12:19:53;30.80;77.10
30280;DHT22;17097;50.916;5.344;2022-07-29T12:22:29;30.30;78.40
30280;DHT22;17097;50.916;5.344;2022-07-29T12:25:01;30.20;78.30
30280;DHT22;17097;50.916;5.344;2022-07-29T12:27:28;29.80;79.30
30280;DHT22;17097;50.916;5.344;2022-07-29T12:29:58;29.90;79.90
30280;DHT22;17097;50.916;5.344;2022-07-29T12:32:40;29.80;78.80
30280;DHT22;17097;50.916;5.344;2022-07-29T12:35:09;30.00;77.20
30280;DHT22;17097;50.916;5.344;2022-07-29T12:37:36;29.80;77.00
30280;DHT22;17097;50.916;5.344;2022-07-29T12:40:07;29.30;79.00
30280;DHT22;17097;50.916;5.344;2022-07-29T12:42:33;29.30;78.60
30280;DHT22;17097;50.916;5.344;2022-07-29T12:44:58;29.20;76.90
30280;DHT22;17097;50.916;5.344;2022-07-29T12:47:24;29.50;77.60
30280;DHT22;17097;50.916;5.344;2022-07-29T12:49:51;29.60;76.60
30280;DHT22;17097;50.916;5.344;2022-07-29T12:52:34;29.80;77.10
30280;DHT22;17097;50.916;5.344;2022-07-29T12:54:59;30.10;75.90
30280;DHT22;17097;50.916;5.344;2022-07-29T12:57:26;30.10;77.30
30280;DHT22;17097;50.916;5.344;2022-07-29T13:00:10;29.90;76.90
30280;DHT22;17097;50.916;5.344;2022-07-29T13:02:40;29.60;76.60
30280;DHT22;17097;50.916;5.344;2022-07-29T13:05:07;29.80;75.70
30280;DHT22;17097;50.916;5.344;2022-07-29T13:07:34;29.50;76.30
30280;DHT22;17097;50.916;5.344;2022-07-29T13:10:17;29.50;76.00
30280;DHT22;17097;50.916;5.344;2022-07-29T13:13:21;29.40;77.50
30280;DHT22;17097;50.916;5.344;2022-07-29T13:16:05;29.30;76.20
30280;DHT22;17097;50.916;5.344;2022-07-29T13:18:34;29.40;76.50
30280;DHT22;17097;50.916;5.344;2022-07-29T13:21:12;29.30;75.50
30280;DHT22;17097;50.916;5.344;2022-07-29T13:23:38;29.30;77.50
30280;DHT22;17097;50.916;5.344;2022-07-29T13:26:08;29.40;77.80
30280;DHT22;17097;50.916;5.344;2022-07-29T13:28:34;29.50;78.00
30280;DHT22;17097;50.916;5.344;2022-07-29T13:31:00;29.90;77.30
30280;DHT22;17097;50.916;5.344;2022-07-29T13:33:26;30.20;74.20
30280;DHT22;17097;50.916;5.344;2022-07-29T13:35:51;30.10;76.30
30280;DHT22;17097;50.916;5.344;2022-07-29T13:38:17;30.00;74.60
30280;DHT22;17097;50.916;5.344;2022-07-29T13:40:43;29.80;74.90
30280;DHT22;17097;50.916;5.344;2022-07-29T13:43:09;29.70;74.30
30280;DHT22;17097;50.916;5.344;2022-07-29T13:45:35;29.50;77.20
30280;DHT22;17097;50.916;5.344;2022-07-29T13:48:01;29.40;75.80
30280;DHT22;17097;50.916;5.344;2022-07-29T13:50:27;29.80;73.90
30280;DHT22;17097;50.916;5.344;2022-07-29T13:52:53;30.00;72.60
30280;DHT22;17097;50.916;5.344;2022-07-29T13:55:19;30.20;73.80
30280;DHT22;17097;50.916;5.344;2022-07-29T13:57:45;30.20;72.40
30280;DHT22;17097;50.916;5.344;2022-07-29T14:00:11;30.20;71.60
30280;DHT22;17097;50.916;5.344;2022-07-29T14:02:37;29.90;70.40
30280;DHT22;17097;50.916;5.344;2022-07-29T14:05:07;29.90;71.50
30280;DHT22;17097;50.916;5.344;2022-07-29T14:07:33;30.10;71.30
30280;DHT22;17097;50.916;5.344;2022-07-29T14:09:58;30.10;70.70
30280;DHT22;17097;50.916;5.344;2022-07-29T14:12:24;30.30;72.40
30280;DHT22;17097;50.916;5.344;2022-07-29T14:14:50;30.50;71.60
30280;DHT22;17097;50.916;5.344;2022-07-29T14:17:15;30.70;67.80
30280;DHT22;17097;50.916;5.344;2022-07-29T14:19:41;30.80;66.00
30280;DHT22;17097;50.916;5.344;2022-07-29T14:22:08;30.90;67.10
30280;DHT22;17097;50.916;5.344;2022-07-29T14:24:34;31.00;67.10
30280;DHT22;17097;50.916;5.344;2022-07-29T14:26:59;30.80;67.60
30280;DHT22;17097;50.916;5.344;2022-07-29T14:29:25;31.00;67.80
30280;DHT22;17097;50.916;5.344;2022-07-29T14:31:51;31.10;67.60
30280;DHT22;17097;50.916;5.344;2022-07-29T14:34:17;30.90;66.70
30280;DHT22;17097;50.916;5.344;2022-07-29T14:36:43;30.80;68.20
30280;DHT22;17097;50.916;5.344;2022-07-29T14:39:08;30.50;69.40
30280;DHT22;17097;50.916;5.344;2022-07-29T14:41:34;30.90;69.10
30280;DHT22;17097;50.916;5.344;2022-07-29T14:44:00;31.20;66.30
30280;DHT22;17097;50.916;5.344;2022-07-29T14:46:28;31.30;66.80
30280;DHT22;17097;50.916;5.344;2022-07-29T14:48:54;31.20;67.80
30280;DHT22;17097;50.916;5.344;2022-07-29T14:51:19;31.40;67.90
30280;DHT22;17097;50.916;5.344;2022-07-29T14:53:45;31.40;65.10
30280;DHT22;17097;50.916;5.344;2022-07-29T14:56:11;31.30;66.10
30280;DHT22;17097;50.916;5.344;2022-07-29T14:58:36;31.40;64.90
30280;DHT22;17097;50.916;5.344;2022-07-29T15:01:02;31.30;65.60
30280;DHT22;17097;50.916;5.344;2022-07-29T15:03:28;31.40;63.40
30280;DHT22;17097;50.916;5.344;2022-07-29T15:05:54;31.30;63.00
30280;DHT22;17097;50.916;5.344;2022-07-29T15:08:20;30.80;64.40
30280;DHT22;17097;50.916;5.344;2022-07-29T15:10:45;30.50;64.20
30280;DHT22;17097;50.916;5.344;2022-07-29T15:13:11;30.30;64.50
30280;DHT22;17097;50.916;5.344;2022-07-29T15:15:36;30.00;65.00
30280;DHT22;17097;50.916;5.344;2022-07-29T15:18:02;29.80;65.50
30280;DHT22;17097;50.916;5.344;2022-07-29T15:20:28;29.40;66.20
30280;DHT22;17097;50.916;5.344;2022-07-29T15:22:54;29.30;68.00
30280;DHT22;17097;50.916;5.344;2022-07-29T15:25:22;29.20;65.80
30280;DHT22;17097;50.916;5.344;2022-07-29T15:27:47;29.40;64.80
30280;DHT22;17097;50.916;5.344;2022-07-29T15:30:13;29.50;66.80
30280;DHT22;17097;50.916;5.344;2022-07-29T15:32:42;29.30;67.20
30280;DHT22;17097;50.916;5.344;2022-07-29T15:35:08;29.10;66.00
30280;DHT22;17097;50.916;5.344;2022-07-29T15:37:36;29.00;67.00
30280;DHT22;17097;50.916;5.344;2022-07-29T15:40:01;29.00;67.70
30280;DHT22;17097;50.916;5.344;2022-07-29T15:42:27;28.70;67.20
30280;DHT22;17097;50.916;5.344;2022-07-29T15:44:53;28.70;67.50
30280;DHT22;17097;50.916;5.344;2022-07-29T15:47:18;28.80;67.10
30280;DHT22;17097;50.916;5.344;2022-07-29T15:49:44;28.70;68.10
30280;DHT22;17097;50.916;5.344;2022-07-29T15:52:10;28.70;67.30
30280;DHT22;17097;50.916;5.344;2022-07-29T15:54:38;28.80;66.80
30280;DHT22;17097;50.916;5.344;2022-07-29T15:57:04;28.70;67.10
30280;DHT22;17097;50.916;5.344;2022-07-29T15:59:31;28.70;67.60
30280;DHT22;17097;50.916;5.344;2022-07-29T16:01:57;28.70;67.70
30280;DHT22;17097;50.916;5.344;2022-07-29T16:04:23;28.50;67.50
30280;DHT22;17097;50.916;5.344;2022-07-29T16:06:49;28.30;67.20
30280;DHT22;17097;50.916;5.344;2022-07-29T16:09:15;28.40;68.10
30280;DHT22;17097;50.916;5.344;2022-07-29T16:11:42;28.30;67.70
30280;DHT22;17097;50.916;5.344;2022-07-29T16:14:08;28.20;68.50
30280;DHT22;17097;50.916;5.344;2022-07-29T16:16:35;28.20;68.50
30280;DHT22;17097;50.916;5.344;2022-07-29T16:19:01;28.10;67.40
30280;DHT22;17097;50.916;5.344;2022-07-29T16:21:27;28.20;69.00
30280;DHT22;17097;50.916;5.344;2022-07-29T16:23:52;27.90;68.10
30280;DHT22;17097;50.916;5.344;2022-07-29T16:26:18;27.80;69.00
30280;DHT22;17097;50.916;5.344;2022-07-29T16:28:44;27.70;68.40
30280;DHT22;17097;50.916;5.344;2022-07-29T16:31:09;27.50;68.60